Time;durP1;ratioP1;P1;durP2;ratioP2;P2;SDS_P1;SDS_P2;PMS_P1;PMS_P2;Temp;Humidity;BMP_temperature;BMP_pressure;BME280_temperature;BME280_humidity;BME280_pressure;Samples;Min_cycle;Max_cycle;Signal;HPM_P1;HPM_P2
2022/05/02 00:00:56;;;;;;;9.73;6.40;;;;;;;9.03;100.00;97530.66;5027710;28;20025;-91
2022/05/02 00:03:21;;;;;;;8.70;5.68;;;;;;;9.05;100.00;97536.75;5033863;28;20021;-89
2022/05/02 00:05:47;;;;;;;9.43;6.25;;;;;;;9.07;100.00;97550.88;5049830;28;20032;-89
2022/05/02 00:08:13;;;;;;;13.70;6.38;;;;;;;9.09;100.00;97537.44;5035537;28;20067;-90
2022/05/02 00:10:39;;;;;;;12.90;6.25;;;;;;;9.06;100.00;97543.81;5051971;28;20098;-89
2022/05/02 00:13:06;;;;;;;10.35;6.13;;;;;;;9.01;100.00;97545.84;5035026;28;20093;-89
2022/05/02 00:15:33;;;;;;;12.20;5.60;;;;;;;8.91;100.00;97538.47;5035216;28;20486;-89
2022/05/02 00:18:01;;;;;;;14.90;6.50;;;;;;;8.88;100.00;97544.84;5034147;28;20035;-88
2022/05/02 00:20:29;;;;;;;11.55;6.78;;;;;;;8.81;100.00;97542.59;5034230;28;20057;-90
2022/05/02 00:22:57;;;;;;;21.35;6.70;;;;;;;8.55;100.00;97539.53;5051807;28;20439;-90
2022/05/02 00:25:23;;;;;;;11.60;7.80;;;;;;;8.48;100.00;97545.28;5051711;28;20071;-89
2022/05/02 00:27:49;;;;;;;13.32;7.32;;;;;;;8.41;100.00;97550.06;5035444;28;20068;-88
2022/05/02 00:30:15;;;;;;;18.80;7.28;;;;;;;8.22;100.00;97527.09;5034951;28;20104;-88
2022/05/02 00:32:41;;;;;;;10.75;7.05;;;;;;;8.20;100.00;97535.19;5051527;28;20504;-89
2022/05/02 00:35:09;;;;;;;13.65;7.50;;;;;;;8.25;100.00;97546.47;5052313;28;20033;-89
2022/05/02 00:37:35;;;;;;;14.60;7.43;;;;;;;8.22;100.00;97549.28;5035329;28;20036;-89
2022/05/02 00:40:01;;;;;;;11.65;7.97;;;;;;;8.11;100.00;97533.03;5035590;28;20469;-90
2022/05/02 00:42:27;;;;;;;12.43;7.45;;;;;;;8.15;100.00;97538.09;5035412;28;20087;-89
2022/05/02 00:44:52;;;;;;;9.85;6.95;;;;;;;8.11;100.00;97528.56;5035210;28;20024;-89
2022/05/02 00:47:20;;;;;;;8.80;6.88;;;;;;;8.10;100.00;97537.47;5051450;28;20029;-90
2022/05/02 00:49:49;;;;;;;10.20;6.85;;;;;;;8.12;100.00;97543.56;5034964;28;20043;-89
2022/05/02 00:52:16;;;;;;;18.00;7.38;;;;;;;8.03;100.00;97533.41;5035659;28;20021;-89
2022/05/02 00:54:45;;;;;;;9.43;7.10;;;;;;;7.99;100.00;97528.34;5033276;28;20021;-90
2022/05/02 00:57:15;;;;;;;10.55;7.13;;;;;;;7.98;100.00;97524.81;5039572;28;20044;-90
2022/05/02 00:59:41;;;;;;;10.50;6.55;;;;;;;7.96;100.00;97525.81;5039091;28;20484;-90
2022/05/02 01:02:08;;;;;;;12.52;7.05;;;;;;;7.95;100.00;97527.63;5054920;28;20546;-89
2022/05/02 01:04:35;;;;;;;10.77;6.70;;;;;;;7.89;100.00;97525.28;5054447;28;20029;-90
2022/05/02 01:07:10;;;;;;;14.68;6.80;;;;;;;7.84;100.00;97515.81;5036838;28;20112;-90
2022/05/02 01:09:41;;;;;;;12.70;7.82;;;;;;;7.79;100.00;97520.50;5040202;28;20132;-90
2022/05/02 01:12:14;;;;;;;11.35;6.70;;;;;;;7.92;100.00;97525.13;5055018;28;20037;-90
2022/05/02 01:14:40;;;;;;;;;;;;;;;7.89;100.00;97517.28;5039482;28;20035;-88
2022/05/02 01:17:06;;;;;;;14.20;7.20;;;;;;;7.85;100.00;97512.19;5039555;28;19974;-90
2022/05/02 01:19:32;;;;;;;13.77;7.30;;;;;;;7.81;100.00;97505.31;5055286;28;20553;-91
2022/05/02 01:21:58;;;;;;;10.15;7.00;;;;;;;7.87;100.00;97510.31;5039302;28;20093;-91
2022/05/02 01:24:35;;;;;;;9.57;6.05;;;;;;;7.83;100.00;97504.28;5039531;28;20033;-90
2022/05/02 01:27:01;;;;;;;14.30;7.20;;;;;;;7.84;100.00;97498.03;5039628;28;20063;-90
2022/05/02 01:29:27;;;;;;;13.57;6.15;;;;;;;7.86;100.00;97498.81;5056140;28;20032;-90
2022/05/02 01:31:54;;;;;;;10.85;6.40;;;;;;;7.88;100.00;97496.91;5056033;28;20134;-90
2022/05/02 01:34:20;;;;;;;9.00;6.07;;;;;;;7.81;100.00;97490.22;5039377;28;20025;-90
2022/05/02 01:36:46;;;;;;;13.93;5.60;;;;;;;7.84;100.00;97505.16;5038213;28;20044;-90
2022/05/02 01:39:11;;;;;;;9.73;6.28;;;;;;;7.74;100.00;97478.16;5037667;28;20032;-89
2022/05/02 01:41:37;;;;;;;11.93;6.03;;;;;;;7.73;100.00;97480.88;5055018;28;20102;-90
2022/05/02 01:44:03;;;;;;;12.48;6.43;;;;;;;7.73;100.00;97489.72;5037560;28;20021;-90
2022/05/02 01:46:28;;;;;;;13.43;6.03;;;;;;;7.73;100.00;97475.56;5037887;28;20025;-90
2022/05/02 01:48:55;;;;;;;10.88;5.85;;;;;;;7.69;100.00;97496.13;5055431;28;20468;-90
2022/05/02 01:51:21;;;;;;;8.52;6.38;;;;;;;7.62;100.00;97473.47;5032676;28;20459;-89
2022/05/02 01:53:47;;;;;;;14.75;5.93;;;;;;;7.72;100.00;97477.34;5054214;28;20033;-89
2022/05/02 01:56:12;;;;;;;9.32;6.70;;;;;;;7.67;100.00;97470.53;5053764;28;20496;-89
2022/05/02 01:58:38;;;;;;;14.60;6.80;;;;;;;7.63;100.00;97470.69;5038361;28;20092;-90
2022/05/02 02:01:04;;;;;;;12.68;6.85;;;;;;;7.61;100.00;97471.72;5039010;28;20037;-89
2022/05/02 02:03:29;;;;;;;14.57;7.85;;;;;;;7.68;100.00;97467.81;5054857;28;20113;-89
2022/05/02 02:05:55;;;;;;;13.27;7.80;;;;;;;7.76;100.00;97467.41;5043923;28;20053;-89
2022/05/02 02:08:29;;;;;;;12.00;7.10;;;;;;;7.71;100.00;97462.34;5054533;28;20031;-89
2022/05/02 02:11:03;;;;;;;13.63;7.15;;;;;;;7.65;100.00;97473.31;5037777;28;20048;-89
2022/05/02 02:13:30;;;;;;;16.73;8.95;;;;;;;7.70;100.00;97473.91;5036577;28;20063;-90
2022/05/02 02:15:55;;;;;;;12.77;7.50;;;;;;;7.63;100.00;97464.50;5059473;28;20025;-90
2022/05/02 02:18:21;;;;;;;11.38;6.85;;;;;;;7.53;100.00;97460.63;5038828;28;20032;-90
2022/05/02 02:20:48;;;;;;;10.50;7.07;;;;;;;7.53;100.00;97476.59;5037486;28;20052;-88
2022/05/02 02:23:15;;;;;;;13.63;7.22;;;;;;;7.52;100.00;97456.22;5053405;28;20451;-89
2022/05/02 02:25:41;;;;;;;15.05;8.70;;;;;;;7.60;100.00;97472.66;5053452;28;20031;-89
2022/05/02 02:28:07;;;;;;;13.63;7.47;;;;;;;7.50;100.00;97474.09;5041350;28;20036;-89
2022/05/02 02:30:33;;;;;;;17.75;8.25;;;;;;;7.39;100.00;97465.78;5054180;28;20039;-89
2022/05/02 02:33:00;;;;;;;17.48;8.43;;;;;;;7.35;100.00;97464.22;5051505;28;20029;-76
2022/05/02 02:35:26;;;;;;;14.13;8.90;;;;;;;7.39;100.00;97474.63;5053738;28;20122;-88
2022/05/02 02:37:51;;;;;;;19.65;9.30;;;;;;;7.36;100.00;97471.25;5054532;28;20021;-89
2022/05/02 02:40:17;;;;;;;18.48;8.52;;;;;;;7.30;100.00;97466.25;5037362;28;20039;-89
2022/05/02 02:42:44;;;;;;;19.45;10.02;;;;;;;7.27;100.00;97458.41;5037497;28;20044;-89
2022/05/02 02:45:10;;;;;;;24.08;10.40;;;;;;;7.39;100.00;97468.44;5037775;28;20178;-90
2022/05/02 02:47:38;;;;;;;19.17;9.73;;;;;;;7.34;100.00;97470.47;5037304;28;21310;-89
2022/05/02 02:50:04;;;;;;;14.77;8.77;;;;;;;7.33;100.00;97460.75;5055111;28;20111;-91
2022/05/02 02:52:30;;;;;;;16.83;9.10;;;;;;;7.26;100.00;97456.72;5039192;28;20029;-89
2022/05/02 02:54:55;;;;;;;16.00;8.63;;;;;;;7.05;100.00;97446.19;5038759;28;20174;-90
2022/05/02 02:57:21;;;;;;;15.57;8.65;;;;;;;7.13;100.00;97464.44;5038688;28;20124;-90
2022/05/02 02:59:47;;;;;;;14.90;8.15;;;;;;;6.99;100.00;97435.00;5039064;28;20064;-91
2022/05/02 03:02:13;;;;;;;15.20;8.52;;;;;;;6.98;100.00;97444.75;5041081;28;20120;-90
2022/05/02 03:07:24;;;;;;;12.35;8.23;;;;;;;6.89;100.00;97439.91;5059287;28;20039;-89
2022/05/02 03:09:49;;;;;;;13.23;8.45;;;;;;;6.89;100.00;97450.53;5057186;28;20044;-90
2022/05/02 03:12:15;;;;;;;29.33;9.45;;;;;;;6.85;100.00;97443.66;5043246;28;20026;-89
2022/05/02 03:14:41;;;;;;;17.42;9.30;;;;;;;6.85;100.00;97448.97;5055019;28;20024;-90
2022/05/02 03:17:06;;;;;;;17.08;9.35;;;;;;;6.96;100.00;97464.38;5038698;28;20068;-90
2022/05/02 03:19:32;;;;;;;15.20;8.50;;;;;;;6.91;100.00;97454.00;5038813;28;20146;-90
2022/05/02 03:21:58;;;;;;;16.02;8.93;;;;;;;6.91;100.00;97450.47;5053736;28;20089;-88
2022/05/02 03:24:23;;;;;;;66.57;23.88;;;;;;;6.88;100.00;97448.81;5052565;28;20116;-88
2022/05/02 03:26:49;;;;;;;73.57;25.25;;;;;;;6.86;100.00;97452.50;5036774;28;20101;-90
2022/05/02 03:29:14;;;;;;;64.80;23.52;;;;;;;6.81;100.00;97441.22;5053698;28;20506;-90
2022/05/02 03:31:40;;;;;;;41.35;17.50;;;;;;;6.82;100.00;97450.91;5034721;28;20028;-91
2022/05/02 03:34:06;;;;;;;38.70;15.70;;;;;;;6.85;100.00;97448.97;5056526;28;20029;-91
2022/05/02 03:36:31;;;;;;;22.85;11.32;;;;;;;6.80;100.00;97440.34;5056084;28;20591;-90
2022/05/02 03:38:57;;;;;;;15.63;8.40;;;;;;;6.74;100.00;97435.31;5055029;28;20033;-89
2022/05/02 03:41:23;;;;;;;17.65;9.07;;;;;;;6.62;100.00;97433.25;5038754;28;20102;-89
2022/05/02 03:43:48;;;;;;;15.05;9.55;;;;;;;6.57;100.00;97437.94;5055120;28;20182;-90
2022/05/02 03:46:14;;;;;;;24.92;9.63;;;;;;;6.48;100.00;97430.41;5038518;28;20037;-89
2022/05/02 03:48:40;;;;;;;17.70;9.07;;;;;;;6.52;100.00;97426.69;5055531;28;20484;-88
2022/05/02 03:51:05;;;;;;;15.70;8.73;;;;;;;6.62;100.00;97435.91;5038135;28;20131;-89
2022/05/02 03:56:15;;;;;;;17.52;8.52;;;;;;;6.72;100.00;97426.56;5054193;28;20110;-89
2022/05/02 03:58:40;;;;;;;15.38;9.75;;;;;;;6.96;100.00;97448.44;5053300;28;20036;-89
2022/05/02 04:01:06;;;;;;;14.98;8.63;;;;;;;6.93;100.00;97427.31;5052278;28;20020;-89
2022/05/02 04:03:32;;;;;;;15.25;9.15;;;;;;;7.08;100.00;97431.88;5052408;28;20404;-88
2022/05/02 04:05:58;;;;;;;20.65;9.75;;;;;;;7.13;100.00;97432.53;5036191;28;20510;-89
2022/05/02 04:08:23;;;;;;;14.13;9.63;;;;;;;7.26;100.00;97448.72;5053783;28;20033;-89
2022/05/02 04:10:49;;;;;;;16.33;9.00;;;;;;;7.36;100.00;97447.31;5053675;28;20025;-89
2022/05/02 04:13:15;;;;;;;19.90;9.85;;;;;;;7.50;100.00;97442.16;5052756;28;20036;-90
2022/05/02 04:15:40;;;;;;;17.15;9.82;;;;;;;7.79;100.00;97448.59;5052661;28;20040;-90
2022/05/02 04:18:06;;;;;;;24.08;9.25;;;;;;;8.16;100.00;97459.91;5053196;28;20059;-88
2022/05/02 04:20:32;;;;;;;15.77;8.88;;;;;;;8.94;100.00;97460.94;5036085;28;20064;-90
2022/05/02 04:22:58;;;;;;;19.55;9.20;;;;;;;9.15;100.00;97471.25;5036145;28;20067;-90
2022/05/02 04:25:24;;;;;;;16.65;9.48;;;;;;;8.83;100.00;97450.03;5034636;28;20029;-87
2022/05/02 04:27:50;;;;;;;23.90;11.48;;;;;;;8.63;100.00;97430.69;5035197;28;20035;-90
2022/05/02 04:30:16;;;;;;;20.92;10.00;;;;;;;8.64;100.00;97455.53;5051516;28;20032;-88
2022/05/02 04:32:42;;;;;;;16.88;9.60;;;;;;;8.56;100.00;97441.75;5033997;28;20397;-88
2022/05/02 04:35:10;;;;;;;16.63;9.48;;;;;;;8.41;100.00;97419.50;5033579;28;20052;-88
2022/05/02 04:37:36;;;;;;;19.27;10.13;;;;;;;8.69;100.00;97453.47;5051706;28;20021;-88
2022/05/02 04:40:03;;;;;;;19.60;9.50;;;;;;;8.66;100.00;97442.97;5050219;28;20025;-88
2022/05/02 04:42:29;;;;;;;17.80;8.45;;;;;;;8.84;100.00;97460.59;5049669;28;20437;-88
2022/05/02 04:44:54;;;;;;;14.13;9.52;;;;;;;8.92;100.00;97455.69;5050934;28;20063;-88
2022/05/02 04:47:20;;;;;;;18.95;10.57;;;;;;;8.94;100.00;97439.59;5019299;28;20036;-89
2022/05/02 04:49:46;;;;;;;17.45;9.45;;;;;;;9.03;100.00;97441.75;5035701;28;20511;-88
2022/05/02 04:52:11;;;;;;;14.93;10.02;;;;;;;8.99;100.00;97429.53;5035740;28;20386;-89
2022/05/02 04:54:37;;;;;;;15.80;9.65;;;;;;;9.41;100.00;97459.06;5055361;28;20043;-90
2022/05/02 04:57:03;;;;;;;20.00;10.63;;;;;;;9.34;100.00;97446.16;5053665;28;20048;-90
2022/05/02 04:59:28;;;;;;;18.25;9.95;;;;;;;9.60;100.00;97450.81;5053695;28;20037;-88
2022/05/02 05:01:54;;;;;;;20.75;9.52;;;;;;;9.73;99.40;97450.00;5053044;28;20037;-88
2022/05/02 05:04:20;;;;;;;16.02;9.40;;;;;;;9.93;98.23;97430.09;5049814;28;20365;-89
2022/05/02 05:06:46;;;;;;;17.38;9.80;;;;;;;10.26;96.50;97465.47;5051747;28;20037;-90
2022/05/02 05:09:11;;;;;;;22.63;9.02;;;;;;;10.41;95.31;97454.75;5035045;28;20028;-89
2022/05/02 05:12:11;;;;;;;16.85;10.70;;;;;;;10.70;94.59;97470.69;5035421;28;20472;-90
2022/05/02 05:17:37;;;;;;;30.77;12.10;;;;;;;11.24;89.71;97470.75;5052550;28;20166;-88
2022/05/02 05:20:19;;;;;;;28.20;13.30;;;;;;;11.48;87.78;97468.25;5050856;28;20064;-90
2022/05/02 05:22:48;;;;;;;;;;;;;;;12.13;84.62;97470.03;5050677;28;20514;-90
2022/05/02 05:25:19;;;;;;;25.02;14.40;;;;;;;13.47;77.67;97469.25;5050337;28;20521;-89
2022/05/02 05:28:03;;;;;;;30.23;12.50;;;;;;;15.24;69.04;97457.91;5067859;28;20516;-90
2022/05/02 05:30:35;;;;;;;18.45;9.68;;;;;;;16.56;61.95;97444.81;5052190;28;20044;-90
2022/05/02 05:33:21;;;;;;;;;;;;;;;18.08;55.71;97441.75;5051392;28;20480;-90
2022/05/02 05:36:03;;;;;;;13.02;8.55;;;;;;;19.38;51.30;97432.59;5051411;28;19924;-90
2022/05/02 05:38:38;;;;;;;17.15;9.05;;;;;;;19.97;49.26;97420.31;5040156;28;20055;-89
2022/05/02 05:41:53;;;;;;;20.85;9.00;;;;;;;20.73;47.13;97429.63;5055872;28;20048;-90
2022/05/02 05:44:31;;;;;;;11.48;8.27;;;;;;;20.73;45.93;97415.16;4973972;28;20030;-91
2022/05/02 05:47:05;;;;;;;7.88;5.63;;;;;;;21.45;43.32;97418.22;4989578;28;20038;-91
2022/05/02 05:49:44;;;;;;;6.45;5.55;;;;;;;22.40;41.70;97397.72;5033041;28;20063;-91
2022/05/02 05:52:54;;;;;;;13.25;6.88;;;;;;;22.08;41.54;97409.50;5037310;28;20029;-89
2022/05/02 05:55:35;;;;;;;10.82;7.10;;;;;;;22.66;41.41;97418.34;5048104;28;21387;-91
2022/05/02 05:58:19;;;;;;;13.90;9.48;;;;;;;23.44;39.25;97420.34;5038038;28;20091;-90
2022/05/02 06:00:45;;;;;;;12.65;9.50;;;;;;;24.50;38.04;97393.97;5052585;28;20032;-89
2022/05/02 06:03:23;;;;;;;9.85;7.00;;;;;;;25.21;36.31;97401.59;5041247;28;20021;-89
2022/05/02 06:05:49;;;;;;;9.93;6.50;;;;;;;24.36;36.73;97386.59;5051824;28;20029;-89
2022/05/02 06:08:19;;;;;;;22.25;11.90;;;;;;;24.64;36.98;97390.41;5039506;28;20037;-89
2022/05/02 06:10:51;;;;;;;11.88;6.53;;;;;;;25.34;35.51;97401.78;5038402;28;20121;-89
2022/05/02 06:13:18;;;;;;;11.65;9.05;;;;;;;23.96;37.51;97391.34;5036222;28;20519;-88
2022/05/02 06:18:42;;;;;;;19.17;6.88;;;;;;;26.14;34.54;97385.22;5052097;28;20503;-88
2022/05/02 06:21:08;;;;;;;13.05;6.70;;;;;;;26.46;32.82;97372.84;5051745;28;20408;-88
2022/05/02 06:23:43;;;;;;;9.00;5.70;;;;;;;26.13;33.97;97373.41;5036796;28;20469;-88
2022/05/02 06:26:10;;;;;;;10.20;5.93;;;;;;;24.12;36.27;97374.81;5053105;28;20047;-89
2022/05/02 06:28:46;;;;;;;11.07;6.47;;;;;;;25.16;35.09;97385.72;5035950;28;20033;-86
2022/05/02 06:31:20;;;;;;;10.00;5.93;;;;;;;25.17;35.54;97381.09;5049458;28;20021;-74
2022/05/02 06:33:51;;;;;;;12.25;6.78;;;;;;;23.38;38.29;97404.66;5046576;28;20044;-76
2022/05/02 06:36:39;;;;;;;11.00;6.43;;;;;;;24.51;36.76;97392.94;5049645;28;20017;-73
2022/05/02 06:39:23;;;;;;;38.85;27.65;;;;;;;25.22;35.84;97395.94;5067593;28;20488;-77
2022/05/02 06:42:17;;;;;;;10.55;6.05;;;;;;;25.60;35.08;97387.56;5063244;28;20052;-78
2022/05/02 06:45:18;;;;;;;12.50;8.88;;;;;;;23.80;37.36;97391.44;5067031;28;20051;-77
2022/05/02 06:48:18;;;;;;;7.85;6.00;;;;;;;23.79;37.90;97386.16;5046229;28;20091;-78
2022/05/02 06:50:54;;;;;;;11.35;6.40;;;;;;;24.66;36.80;97367.31;5058975;28;20072;-78
2022/05/02 06:53:38;;;;;;;20.58;9.20;;;;;;;25.70;35.42;97371.69;5050485;28;20120;-77
2022/05/02 06:56:07;;;;;;;6.85;5.68;;;;;;;27.08;33.28;97368.25;5066980;28;20033;-77
2022/05/02 06:59:10;;;;;;;151.65;12.75;;;;;;;25.55;35.07;97365.41;5068149;28;20102;-77
2022/05/02 07:01:49;;;;;;;17.90;6.88;;;;;;;26.03;35.46;97366.53;5052217;28;20040;-77
2022/05/02 07:04:36;;;;;;;15.15;6.70;;;;;;;26.78;33.83;97358.53;5051135;28;20021;-78
2022/05/02 07:07:13;;;;;;;18.73;6.85;;;;;;;27.87;32.67;97357.63;5051406;28;20032;-79
2022/05/02 07:09:45;;;;;;;12.82;6.00;;;;;;;28.51;30.95;97334.00;5045998;28;20087;-78
2022/05/02 07:12:17;;;;;;;9.80;5.90;;;;;;;26.19;34.34;97345.22;5050459;28;20123;-77
2022/05/02 07:15:05;;;;;;;11.25;5.90;;;;;;;26.89;33.26;97349.75;5034433;28;20124;-77
2022/05/02 07:17:40;;;;;;;10.77;6.03;;;;;;;26.37;33.58;97348.31;5052430;28;20078;-77
2022/05/02 07:20:07;;;;;;;8.45;5.70;;;;;;;27.67;32.44;97345.72;5050349;28;20049;-75
2022/05/02 07:22:36;;;;;;;13.95;6.18;;;;;;;29.40;30.03;97334.28;5050253;28;20100;-74
2022/05/02 07:25:12;;;;;;;7.43;4.10;;;;;;;29.11;29.67;97320.97;5049886;28;20491;-75
2022/05/02 07:28:28;;;;;;;22.58;4.53;;;;;;;28.56;29.80;97318.75;5051953;28;20029;-77
2022/05/02 07:30:57;;;;;;;12.88;4.65;;;;;;;29.54;28.74;97318.50;4990827;28;20030;-77
2022/05/02 07:33:28;;;;;;;7.68;3.60;;;;;;;28.58;29.23;97308.38;4973526;28;20035;-77
2022/05/02 07:35:56;;;;;;;6.50;4.67;;;;;;;29.83;28.44;97303.31;4974118;28;20580;-77
2022/05/02 07:38:23;;;;;;;20.95;13.63;;;;;;;30.22;28.32;97299.41;4976023;28;20041;-77
2022/05/02 07:43:34;;;;;;;8.88;5.68;;;;;;;30.39;27.25;97295.91;5050906;28;20361;-79
2022/05/02 07:46:03;;;;;;;4.28;3.30;;;;;;;30.85;26.72;97283.56;5050594;28;20108;-84
2022/05/02 07:48:32;;;;;;;7.15;3.80;;;;;;;31.76;25.70;97292.66;5051617;28;20024;-80
2022/05/02 07:50:59;;;;;;;5.72;3.72;;;;;;;31.76;25.86;97286.28;5035171;28;20116;-81
2022/05/02 07:53:25;;;;;;;3.90;3.50;;;;;;;30.06;26.86;97276.81;5050038;28;20566;-75
2022/05/02 07:55:52;;;;;;;8.48;4.00;;;;;;;30.08;27.29;97277.47;5051101;28;20112;-80
2022/05/02 07:58:19;;;;;;;4.97;3.03;;;;;;;29.65;27.15;97276.47;5051016;28;20033;-80
2022/05/02 08:00:44;;;;;;;4.75;3.30;;;;;;;30.52;27.20;97279.19;5050799;28;20128;-80
2022/05/02 08:03:23;;;;;;;5.88;3.10;;;;;;;31.07;26.15;97265.47;5034631;28;20053;-81
2022/05/02 08:05:53;;;;;;;5.15;3.30;;;;;;;29.98;26.89;97248.66;5034514;28;20040;-80
2022/05/02 08:08:28;;;;;;;65.22;45.60;;;;;;;30.15;27.22;97257.25;5050846;28;20103;-80
2022/05/02 08:11:19;;;;;;;9.45;4.65;;;;;;;26.10;31.47;97266.84;5034778;28;20040;-81
2022/05/02 08:13:47;;;;;;;8.93;3.17;;;;;;;25.20;33.10;97280.25;5050766;28;20056;-81
2022/05/02 08:16:23;;;;;;;3.65;2.95;;;;;;;24.59;33.89;97277.94;5067896;28;20029;-81
2022/05/02 08:18:58;;;;;;;7.97;3.95;;;;;;;23.91;35.49;97291.78;5028574;28;20060;-81
2022/05/02 08:21:43;;;;;;;4.88;3.05;;;;;;;23.46;35.98;97298.97;5067329;28;20538;-81
2022/05/02 08:27:15;;;;;;;8.25;4.80;;;;;;;22.30;38.45;97301.69;5052390;28;20075;-81
2022/05/02 08:29:41;;;;;;;7.32;3.30;;;;;;;22.06;38.08;97311.59;5067122;28;20064;-81
2022/05/02 08:32:22;;;;;;;6.70;3.53;;;;;;;21.77;38.32;97311.25;5068057;28;20068;-81
2022/05/02 08:35:34;;;;;;;4.43;3.05;;;;;;;21.68;38.87;97306.81;5050346;28;20072;-82
2022/05/02 08:38:21;;;;;;;3.45;3.10;;;;;;;21.78;38.94;97318.38;4974583;28;20097;-83
2022/05/02 08:41:08;;;;;;;23.58;11.05;;;;;;;21.81;40.19;97317.22;4991089;28;20034;-83
2022/05/02 08:43:56;;;;;;;5.05;3.58;;;;;;;21.20;40.60;97323.06;5031965;28;20037;-82
2022/05/02 08:47:01;;;;;;;4.50;3.28;;;;;;;21.08;39.57;97317.94;5068072;28;20033;-82
2022/05/02 08:49:44;;;;;;;3.65;2.90;;;;;;;20.77;40.52;97316.78;5032813;28;20037;-82
2022/05/02 08:52:25;;;;;;;10.77;4.03;;;;;;;20.63;41.16;97316.56;5067391;28;20611;-83
2022/05/02 08:55:28;;;;;;;4.50;3.13;;;;;;;20.47;40.84;97320.03;5060891;28;20441;-83
2022/05/02 08:58:18;;;;;;;7.72;3.85;;;;;;;21.18;39.80;97322.38;5044304;28;20021;-83
2022/05/02 09:01:08;;;;;;;12.13;5.95;;;;;;;21.34;38.70;97312.41;5067796;28;20114;-82
2022/05/02 09:03:59;;;;;;;9.15;4.60;;;;;;;21.35;40.52;97322.25;5067278;28;20017;-83
2022/05/02 09:06:49;;;;;;;12.88;5.38;;;;;;;21.22;38.78;97319.19;5052449;28;20570;-83
2022/05/02 09:09:45;;;;;;;9.10;4.32;;;;;;;20.67;39.30;97318.81;5067551;28;20025;-83
2022/05/02 09:12:48;;;;;;;3.63;2.95;;;;;;;20.27;40.11;97311.25;5047745;28;20056;-83
2022/05/02 09:15:30;;;;;;;7.10;3.22;;;;;;;20.58;40.31;97310.78;5069237;28;20032;-83
2022/05/02 09:18:23;;;;;;;8.32;3.47;;;;;;;20.80;39.71;97300.13;5054218;28;20049;-83
2022/05/02 09:20:58;;;;;;;;;;;;;;;21.02;38.71;97304.13;5071097;28;20059;-83
2022/05/02 09:23:53;;;;;;;7.35;3.35;;;;;;;21.08;39.10;97282.59;5055037;28;19936;-82
2022/05/02 09:26:22;;;;;;;8.00;3.30;;;;;;;21.67;37.15;97282.47;5070928;28;20479;-82
2022/05/02 09:28:53;;;;;;;11.70;3.20;;;;;;;23.25;35.00;97276.06;5056617;28;20411;-82
2022/05/02 09:31:56;;;;;;;3.93;2.87;;;;;;;24.00;33.44;97253.25;5070770;28;20029;-81
2022/05/02 09:34:58;;;;;;;2.90;2.60;;;;;;;24.96;31.95;97247.75;5055756;28;20481;-82
2022/05/02 09:37:38;;;;;;;6.70;2.78;;;;;;;25.50;30.86;97230.91;5054775;28;20572;-82
2022/05/02 09:40:09;;;;;;;4.72;2.65;;;;;;;25.03;31.06;97210.38;5053852;28;20017;-81
2022/05/02 09:42:56;;;;;;;4.55;2.78;;;;;;;25.01;31.40;97208.88;5054362;28;20023;-82
2022/05/02 09:51:43;;;;;;;2.33;2.03;;;;;;;24.95;29.74;97202.25;5054450;28;20114;-82
2022/05/02 09:56:37;;;;;;;3.53;2.50;;;;;;;25.04;30.50;97211.22;5054682;28;20401;-82
2022/05/02 09:57:18;;;;;;;5.03;2.88;;;;;;;23.42;33.48;97213.00;5054221;28;20088;-82
2022/05/02 10:02:49;;;;;;;3.95;3.03;;;;;;;22.34;36.19;97226.69;5033273;28;20493;-81
2022/05/02 10:05:26;;;;;;;5.30;3.60;;;;;;;22.30;36.78;97228.09;5036434;28;20053;-84
2022/05/02 10:08:29;;;;;;;6.60;4.10;;;;;;;22.42;37.09;97227.53;5053722;28;20377;-82
2022/05/02 10:11:07;;;;;;;3.38;2.80;;;;;;;22.41;35.72;97224.97;4987382;28;20036;-82
2022/05/02 10:14:12;;;;;;;3.20;2.80;;;;;;;22.37;34.55;97218.16;5053524;28;20025;-83
2022/05/02 10:16:45;;;;;;;3.00;2.58;;;;;;;22.08;35.94;97216.94;5007829;28;20036;-82
2022/05/02 10:19:24;;;;;;;3.35;2.97;;;;;;;22.40;35.67;97215.09;5046226;28;20055;-81
2022/05/02 10:22:08;;;;;;;73.75;48.22;;;;;;;22.41;36.54;97222.25;5036275;28;20036;-81
2022/05/02 10:25:01;;;;;;;14.75;7.82;;;;;;;22.61;36.08;97226.25;5054831;28;20029;-81
2022/05/02 10:27:54;;;;;;;9.70;3.40;;;;;;;21.91;37.35;97217.97;5054466;28;20050;-82
2022/05/02 10:30:20;;;;;;;4.10;3.35;;;;;;;22.00;36.81;97210.63;5052971;28;20524;-82
2022/05/02 10:32:55;;;;;;;6.53;2.95;;;;;;;22.11;36.61;97202.94;5053579;28;20033;-82
2022/05/02 10:35:21;;;;;;;6.35;2.80;;;;;;;22.12;36.25;97184.69;5036920;28;20467;-82
2022/05/02 10:38:06;;;;;;;4.50;2.72;;;;;;;22.61;35.02;97199.00;5036411;28;20094;-83
2022/05/02 10:40:43;;;;;;;3.42;2.78;;;;;;;23.35;33.94;97186.59;5037182;28;20027;-82
2022/05/02 10:43:10;;;;;;;4.05;3.40;;;;;;;23.33;34.18;97186.75;5054544;28;20036;-82
2022/05/02 10:45:40;;;;;;;4.95;3.53;;;;;;;22.68;34.53;97170.00;5052849;28;20100;-83
2022/05/02 10:48:14;;;;;;;6.03;3.42;;;;;;;23.20;34.28;97175.59;5052664;28;20039;-82
2022/05/02 10:50:40;;;;;;;7.90;3.03;;;;;;;23.52;33.54;97156.25;5052998;28;20108;-82
2022/05/02 10:53:24;;;;;;;4.03;2.75;;;;;;;23.11;33.96;97169.34;5051722;28;20476;-82
2022/05/02 10:56:16;;;;;;;4.22;2.72;;;;;;;22.69;35.21;97182.63;5069271;28;20039;-82
2022/05/02 10:58:46;;;;;;;3.13;2.67;;;;;;;22.06;36.32;97191.72;5047593;28;20029;-81
2022/05/02 11:01:24;;;;;;;6.22;2.92;;;;;;;22.13;37.13;97181.81;5052692;28;20039;-82
2022/05/02 11:04:21;;;;;;;4.03;2.70;;;;;;;21.64;37.37;97169.31;5053903;28;20103;-82
2022/05/02 11:06:58;;;;;;;7.30;3.10;;;;;;;21.22;38.56;97185.00;5064208;28;20035;-82
2022/05/02 11:09:32;;;;;;;3.17;2.70;;;;;;;20.54;39.33;97182.50;5052034;28;20063;-82
2022/05/02 11:12:01;;;;;;;3.45;2.70;;;;;;;20.23;39.40;97181.34;5052260;28;20028;-81
2022/05/02 11:14:51;;;;;;;4.53;3.15;;;;;;;19.84;40.65;97189.97;5051798;28;20029;-81
2022/05/02 11:17:41;;;;;;;7.25;3.45;;;;;;;19.50;41.14;97185.53;5068068;28;20033;-82
2022/05/02 11:23:36;;;;;;;4.97;3.08;;;;;;;19.52;42.06;97199.78;5049130;28;20044;-81
2022/05/02 11:26:32;;;;;;;5.22;2.75;;;;;;;19.54;41.63;97198.59;5052098;28;20063;-82
2022/05/02 11:29:05;;;;;;;3.20;2.90;;;;;;;19.67;41.66;97203.59;5052051;28;20082;-82
2022/05/02 11:31:38;;;;;;;3.13;2.63;;;;;;;19.75;41.02;97193.66;5052244;28;20049;-81
2022/05/02 11:34:26;;;;;;;8.75;2.60;;;;;;;19.64;40.73;97196.63;5068354;28;20037;-81
2022/05/02 11:36:54;;;;;;;6.03;2.75;;;;;;;19.69;40.87;97194.28;5051748;28;20049;-80
2022/05/02 11:39:29;;;;;;;7.65;3.42;;;;;;;19.67;40.98;97195.47;5018895;28;20094;-81
2022/05/02 11:41:57;;;;;;;7.25;3.50;;;;;;;19.53;40.86;97182.50;5051853;28;20488;-81
2022/05/02 11:44:29;;;;;;;4.20;2.90;;;;;;;19.68;40.16;97187.19;5043449;28;20033;-81
2022/05/02 11:46:55;;;;;;;4.32;2.78;;;;;;;19.78;40.09;97192.50;5035022;28;20066;-81
2022/05/02 11:49:29;;;;;;;3.40;2.75;;;;;;;19.92;39.99;97190.03;5068049;28;20041;-81
2022/05/02 11:51:58;;;;;;;3.42;2.72;;;;;;;19.80;39.60;97185.88;5068631;28;20040;-81
2022/05/02 11:54:27;;;;;;;6.28;3.35;;;;;;;19.91;40.37;97188.31;5035140;28;20036;-82
2022/05/02 11:57:11;;;;;;;4.15;2.90;;;;;;;20.26;38.64;97186.47;5068821;28;20518;-81
2022/05/02 11:59:58;;;;;;;7.68;2.92;;;;;;;20.11;38.92;97188.06;5052045;28;20519;-81
2022/05/02 12:02:26;;;;;;;4.50;2.60;;;;;;;20.03;38.98;97183.44;5067885;28;20025;-81
2022/05/02 12:04:53;;;;;;;4.68;3.25;;;;;;;20.01;39.16;97183.63;5068063;28;20036;-82
2022/05/02 12:07:29;;;;;;;5.35;3.38;;;;;;;20.02;38.85;97173.63;5051523;28;20404;-81
2022/05/02 12:10:22;;;;;;;5.60;3.85;;;;;;;20.10;40.17;97176.34;5052258;28;20495;-80
2022/05/02 12:12:49;;;;;;;6.05;2.70;;;;;;;20.05;38.87;97176.00;5034829;28;20051;-81
2022/05/02 12:15:15;;;;;;;7.82;3.13;;;;;;;19.85;39.35;97166.38;5051012;28;20075;-82
2022/05/02 12:18:03;;;;;;;5.38;2.90;;;;;;;19.80;39.32;97171.47;5034492;28;20083;-82
2022/05/02 12:20:33;;;;;;;6.70;3.20;;;;;;;19.83;38.68;97163.00;5034880;28;20048;-81
2022/05/02 12:23:05;;;;;;;7.20;2.80;;;;;;;19.58;39.16;97159.28;5051321;28;20090;-81
2022/05/02 12:25:32;;;;;;;5.13;2.85;;;;;;;19.40;39.06;97150.34;5050908;28;20064;-82
2022/05/02 12:27:58;;;;;;;6.20;3.20;;;;;;;19.14;39.78;97154.84;5051440;28;20416;-81